createdAt,value
2023-05-07T00:00:25.583Z,101575.00
2023-05-07T00:02:55.628Z,101574.00
2023-05-07T00:05:25.713Z,101578.00
2023-05-07T00:07:58.466Z,101570.00
2023-05-07T00:10:30.511Z,101566.00
2023-05-07T00:13:00.590Z,101573.00
2023-05-07T00:15:33.241Z,101572.00
2023-05-07T00:18:03.293Z,101568.00
2023-05-07T00:20:35.593Z,101572.00
2023-05-07T00:23:06.142Z,101574.00
2023-05-07T00:25:36.101Z,101574.00
2023-05-07T00:28:06.423Z,101569.00
2023-05-07T00:30:39.221Z,101573.00
2023-05-07T00:33:09.338Z,101573.00
2023-05-07T00:35:39.420Z,101574.00
2023-05-07T00:38:09.452Z,101571.00
2023-05-07T00:40:39.437Z,101575.00
2023-05-07T00:43:10.101Z,101569.00
2023-05-07T00:45:42.939Z,101566.00
2023-05-07T00:48:12.969Z,101569.00
2023-05-07T00:50:43.149Z,101568.00
2023-05-07T00:53:13.322Z,101565.00
2023-05-07T00:55:43.678Z,101562.00
2023-05-07T00:58:13.673Z,101564.00
2023-05-07T01:00:46.353Z,101571.00
2023-05-07T01:03:16.573Z,101570.00
2023-05-07T01:05:48.496Z,101569.00
2023-05-07T01:08:20.035Z,101566.00
2023-05-07T01:10:50.659Z,101562.00
2023-05-07T01:13:22.095Z,101571.00
2023-05-07T01:15:54.884Z,101570.00
2023-05-07T01:18:24.885Z,101572.00
2023-05-07T01:20:55.534Z,101573.00
2023-05-07T01:23:29.101Z,101567.00
2023-05-07T01:25:59.464Z,101576.00
2023-05-07T01:28:29.552Z,101574.00
2023-05-07T01:31:05.657Z,101580.00
2023-05-07T01:33:39.051Z,101571.00
2023-05-07T01:36:11.398Z,101580.00
2023-05-07T01:38:45.162Z,101580.00
2023-05-07T01:41:16.264Z,101583.00
2023-05-07T01:43:47.405Z,101582.00
2023-05-07T01:46:18.608Z,101573.00
2023-05-07T01:48:49.751Z,101583.00
2023-05-07T01:51:21.077Z,101582.00
2023-05-07T01:53:54.507Z,101587.00
2023-05-07T01:56:24.894Z,101582.00
2023-05-07T01:58:55.206Z,101591.00
2023-05-07T02:01:25.213Z,101589.00
2023-05-07T02:03:55.416Z,101586.00
2023-05-07T02:06:25.496Z,101591.00
2023-05-07T02:08:58.083Z,101591.00
2023-05-07T02:11:28.108Z,101585.00
2023-05-07T02:13:58.098Z,101587.00
2023-05-07T02:16:28.105Z,101594.00
2023-05-07T02:18:59.299Z,101590.00
2023-05-07T02:21:31.103Z,101580.00
2023-05-07T02:24:03.840Z,101592.00
2023-05-07T02:26:33.807Z,101597.00
2023-05-07T02:29:03.800Z,101604.00
2023-05-07T02:31:35.069Z,101603.00
2023-05-07T02:34:05.248Z,101608.00
2023-05-07T02:36:35.414Z,101605.00
2023-05-07T02:39:08.005Z,101604.00
2023-05-07T02:41:38.034Z,101605.00
2023-05-07T02:44:08.295Z,101607.00
2023-05-07T02:46:38.276Z,101598.00
2023-05-07T02:49:08.270Z,101613.00
2023-05-07T02:51:38.310Z,101608.00
2023-05-07T02:54:10.990Z,101615.00
2023-05-07T02:56:40.943Z,101613.00
2023-05-07T02:59:13.727Z,101614.00
2023-05-07T03:01:45.203Z,101614.00
2023-05-07T03:04:15.413Z,101609.00
2023-05-07T03:06:45.546Z,101618.00
2023-05-07T03:09:18.123Z,101618.00
2023-05-07T03:11:48.151Z,101624.00
2023-05-07T03:14:18.125Z,101641.00
2023-05-07T03:16:48.090Z,101631.00
2023-05-07T03:19:18.073Z,101637.00
2023-05-07T03:21:48.463Z,101629.00
2023-05-07T03:24:21.030Z,101640.00
2023-05-07T03:26:51.286Z,101633.00
2023-05-07T03:29:21.530Z,101639.00
2023-05-07T03:31:51.547Z,101639.00
2023-05-07T03:34:23.224Z,101638.00
2023-05-07T03:36:53.246Z,101639.00
2023-05-07T03:39:25.841Z,101643.00
2023-05-07T03:41:56.274Z,101644.00
2023-05-07T03:44:26.392Z,101640.00
2023-05-07T03:46:56.531Z,101644.00
2023-05-07T03:49:26.614Z,101648.00
2023-05-07T03:51:56.787Z,101648.00
2023-05-07T03:54:29.520Z,101650.00
2023-05-07T03:56:59.476Z,101643.00
2023-05-07T03:59:29.462Z,101656.00
2023-05-07T04:01:59.450Z,101647.00
2023-05-07T04:04:34.089Z,101668.00
2023-05-07T04:07:04.318Z,101654.00
2023-05-07T04:09:36.885Z,101652.00
2023-05-07T04:12:07.896Z,101657.00
2023-05-07T04:14:38.065Z,101651.00
2023-05-07T04:17:08.296Z,101660.00
2023-05-07T04:19:38.311Z,101657.00
2023-05-07T04:22:08.334Z,101656.00
2023-05-07T04:24:40.872Z,101651.00
2023-05-07T04:27:10.860Z,101658.00
2023-05-07T04:29:43.343Z,101660.00
2023-05-07T04:32:13.896Z,101667.00
2023-05-07T04:34:43.918Z,101666.00
2023-05-07T04:37:14.099Z,101670.00
2023-05-07T04:39:46.630Z,101668.00
2023-05-07T04:42:19.048Z,101676.00
2023-05-07T04:44:49.453Z,101677.00
2023-05-07T04:47:19.415Z,101679.00
2023-05-07T04:49:49.385Z,101680.00
2023-05-07T04:52:19.517Z,101687.00
2023-05-07T04:54:52.073Z,101674.00
2023-05-07T04:57:22.018Z,101682.00
2023-05-07T04:59:52.168Z,101687.00
2023-05-07T05:02:22.219Z,101682.00
2023-05-07T05:04:52.177Z,101684.00
2023-05-07T05:07:22.145Z,101683.00
2023-05-07T05:09:54.717Z,101681.00
2023-05-07T05:12:24.691Z,101681.00
2023-05-07T05:14:54.843Z,101696.00
2023-05-07T05:17:24.993Z,101695.00
2023-05-07T05:19:55.125Z,101693.00
2023-05-07T05:22:25.087Z,101695.00
2023-05-07T05:24:57.628Z,101690.00
2023-05-07T05:27:28.092Z,101696.00
2023-05-07T05:29:58.097Z,101703.00
2023-05-07T05:32:28.143Z,101700.00
2023-05-07T05:34:58.093Z,101711.00
2023-05-07T05:37:28.901Z,101712.00
2023-05-07T05:40:01.417Z,101708.00
2023-05-07T05:42:31.399Z,101703.00
2023-05-07T05:45:01.329Z,101696.00
2023-05-07T05:47:31.398Z,101701.00
2023-05-07T05:50:01.387Z,101694.00
2023-05-07T05:52:31.675Z,101694.00
2023-05-07T05:55:04.201Z,101707.00
2023-05-07T05:57:34.784Z,101709.00
2023-05-07T06:00:05.401Z,101704.00
2023-05-07T06:02:35.474Z,101709.00
2023-05-07T06:05:05.539Z,101716.00
2023-05-07T06:07:35.842Z,101724.00
2023-05-07T06:10:10.845Z,101725.00
2023-05-07T06:12:41.193Z,101722.00
2023-05-07T06:15:12.255Z,101726.00
2023-05-07T06:17:42.249Z,101728.00
2023-05-07T06:20:13.286Z,101732.00
2023-05-07T06:22:43.427Z,101732.00
2023-05-07T06:25:16.112Z,101729.00
2023-05-07T06:27:46.141Z,101736.00
2023-05-07T06:30:16.692Z,101737.00
2023-05-07T06:32:46.727Z,101728.00
2023-05-07T06:35:16.717Z,101737.00
2023-05-07T06:37:46.662Z,101738.00
2023-05-07T06:40:19.302Z,101754.00
2023-05-07T06:42:49.265Z,101736.00
2023-05-07T06:45:19.436Z,101745.00
2023-05-07T06:47:49.574Z,101744.00
2023-05-07T06:50:20.425Z,101741.00
2023-05-07T06:52:50.389Z,101746.00
2023-05-07T06:55:23.396Z,101751.00
2023-05-07T06:57:53.358Z,101762.00
2023-05-07T07:00:24.257Z,101762.00
2023-05-07T07:02:54.245Z,101769.00
2023-05-07T07:05:27.065Z,101767.00
2023-05-07T07:07:57.052Z,101765.00
2023-05-07T07:10:29.584Z,101771.00
2023-05-07T07:12:59.595Z,101764.00
2023-05-07T07:15:30.905Z,101765.00
2023-05-07T07:18:00.878Z,101770.00
2023-05-07T07:20:30.902Z,101778.00
2023-05-07T07:23:00.867Z,101764.00
2023-05-07T07:25:33.400Z,101768.00
2023-05-07T07:28:03.381Z,101763.00
2023-05-07T07:30:33.364Z,101771.00
2023-05-07T07:33:04.488Z,101771.00
2023-05-07T07:35:34.928Z,101773.00
2023-05-07T07:38:05.296Z,101768.00
2023-05-07T07:40:39.217Z,101776.00
2023-05-07T07:43:09.243Z,101763.00
2023-05-07T07:45:41.051Z,101766.00
2023-05-07T07:48:11.292Z,101762.00
2023-05-07T07:50:45.855Z,101761.00
2023-05-07T07:53:17.721Z,101758.00
2023-05-07T07:55:58.093Z,101768.00
2023-05-07T07:58:31.290Z,101762.00
2023-05-07T08:01:01.643Z,101758.00
2023-05-07T08:03:33.624Z,101764.00
2023-05-07T08:06:06.741Z,101764.00
2023-05-07T08:08:36.905Z,101769.00
2023-05-07T08:11:10.117Z,101769.00
2023-05-07T08:13:42.280Z,101764.00
2023-05-07T08:16:12.672Z,101773.00
2023-05-07T08:18:46.067Z,101769.00
2023-05-07T08:21:16.137Z,101763.00
2023-05-07T08:23:46.146Z,101762.00
2023-05-07T08:26:18.796Z,101769.00
2023-05-07T08:28:48.772Z,101774.00
2023-05-07T08:31:18.883Z,101778.00
2023-05-07T08:33:48.957Z,101774.00
2023-05-07T08:36:20.415Z,101782.00
2023-05-07T08:38:50.760Z,101778.00
2023-05-07T08:41:23.447Z,101783.00
2023-05-07T08:43:54.951Z,101788.00
2023-05-07T08:46:29.374Z,101780.00
2023-05-07T08:48:59.437Z,101793.00
2023-05-07T08:51:29.429Z,101786.00
2023-05-07T08:53:59.389Z,101799.00
2023-05-07T08:56:31.945Z,101803.00
2023-05-07T08:59:01.930Z,101789.00
2023-05-07T09:01:31.952Z,101808.00
2023-05-07T09:04:02.284Z,101781.00
2023-05-07T09:06:32.361Z,101796.00
2023-05-07T09:09:02.449Z,101799.00
2023-05-07T09:11:35.063Z,101799.00
2023-05-07T09:14:05.707Z,101799.00
2023-05-07T09:16:36.599Z,101795.00
2023-05-07T09:19:06.723Z,101807.00
2023-05-07T09:21:36.725Z,101803.00
2023-05-07T09:24:07.190Z,101797.00
2023-05-07T09:26:39.773Z,101788.00
2023-05-07T09:29:10.119Z,101791.00
2023-05-07T09:31:41.460Z,101798.00
2023-05-07T09:34:11.468Z,101801.00
2023-05-07T09:36:41.592Z,101801.00
2023-05-07T09:39:11.981Z,101813.00
2023-05-07T09:41:52.434Z,101796.00
2023-05-07T09:44:23.184Z,101803.00
2023-05-07T09:46:59.280Z,101792.00
2023-05-07T09:49:33.577Z,101796.00
2023-05-07T09:52:07.194Z,101794.00
2023-05-07T09:54:39.045Z,101799.00
2023-05-07T09:57:13.359Z,101792.00
2023-05-07T09:59:47.123Z,101800.00
2023-05-07T10:02:19.715Z,101802.00
2023-05-07T10:04:50.713Z,101811.00
2023-05-07T10:07:21.330Z,101809.00
2023-05-07T10:09:51.651Z,101807.00
2023-05-07T10:12:25.295Z,101805.00
2023-05-07T10:14:58.435Z,101803.00
2023-05-07T10:17:29.065Z,101806.00
2023-05-07T10:19:59.417Z,101804.00
2023-05-07T10:22:30.452Z,101803.00
2023-05-07T10:25:03.625Z,101805.00
2023-05-07T10:27:36.876Z,101810.00
2023-05-07T10:30:22.118Z,101803.00
2023-05-07T10:32:56.590Z,101804.00
2023-05-07T10:35:30.659Z,101810.00
2023-05-07T10:38:00.750Z,101803.00
2023-05-07T10:40:30.819Z,101812.00
2023-05-07T10:43:08.462Z,101802.00
2023-05-07T10:45:40.181Z,101800.00
2023-05-07T10:48:28.132Z,101789.00
2023-05-07T10:51:24.216Z,101795.00
2023-05-07T10:54:24.914Z,101799.00
2023-05-07T10:56:55.214Z,101791.00
2023-05-07T10:59:45.164Z,101802.00
2023-05-07T11:02:16.461Z,101802.00
2023-05-07T11:04:46.559Z,101799.00
2023-05-07T11:07:33.339Z,101809.00
2023-05-07T11:10:11.265Z,101803.00
2023-05-07T11:12:57.501Z,101796.00
2023-05-07T11:15:49.103Z,101798.00
2023-05-07T11:18:21.271Z,101796.00
2023-05-07T11:21:02.549Z,101805.00
2023-05-07T11:24:02.765Z,101804.00
2023-05-07T11:26:34.998Z,101804.00
2023-05-07T11:29:05.087Z,101798.00
2023-05-07T11:31:37.945Z,101800.00
2023-05-07T11:34:08.418Z,101812.00
2023-05-07T11:36:39.885Z,101798.00
2023-05-07T11:39:09.903Z,101796.00
2023-05-07T11:41:41.027Z,101790.00
2023-05-07T11:44:11.037Z,101791.00
2023-05-07T11:46:47.222Z,101798.00
2023-05-07T11:49:17.284Z,101802.00
2023-05-07T11:51:47.884Z,101793.00
2023-05-07T11:54:20.592Z,101797.00
2023-05-07T11:56:50.773Z,101801.00
2023-05-07T11:59:23.523Z,101791.00
2023-05-07T12:01:56.125Z,101799.00
2023-05-07T12:04:26.497Z,101807.00
2023-05-07T12:06:58.606Z,101800.00
2023-05-07T12:09:28.606Z,101801.00
2023-05-07T12:11:58.626Z,101794.00
2023-05-07T12:14:33.710Z,101784.00
2023-05-07T12:17:07.358Z,101785.00
2023-05-07T12:19:38.192Z,101794.00
2023-05-07T12:22:09.174Z,101785.00
2023-05-07T12:24:49.345Z,101786.00
2023-05-07T12:27:20.741Z,101790.00
2023-05-07T12:29:51.584Z,101785.00
2023-05-07T12:32:25.785Z,101791.00
2023-05-07T12:34:56.333Z,101792.00
2023-05-07T12:37:31.794Z,101802.00
2023-05-07T12:40:10.176Z,101803.00
2023-05-07T12:42:41.719Z,101799.00
2023-05-07T12:45:16.275Z,101791.00
2023-05-07T12:47:51.360Z,101794.00
2023-05-07T12:50:22.099Z,101794.00
2023-05-07T12:52:52.539Z,101796.00
2023-05-07T12:55:22.648Z,101788.00
2023-05-07T12:57:54.183Z,101790.00
2023-05-07T13:00:38.154Z,101792.00
2023-05-07T13:03:11.009Z,101789.00
2023-05-07T13:05:41.069Z,101791.00
2023-05-07T13:08:11.040Z,101784.00
2023-05-07T13:10:41.034Z,101795.00
2023-05-07T13:13:11.061Z,101794.00
2023-05-07T13:15:41.059Z,101806.00
2023-05-07T13:18:13.739Z,101795.00
2023-05-07T13:20:43.807Z,101792.00
2023-05-07T13:23:13.845Z,101794.00
2023-05-07T13:25:43.835Z,101784.00
2023-05-07T13:28:13.935Z,101787.00
2023-05-07T13:30:44.528Z,101790.00
2023-05-07T13:33:18.054Z,101787.00
2023-05-07T13:35:48.695Z,101800.00
2023-05-07T13:38:19.194Z,101790.00
2023-05-07T13:40:49.194Z,101784.00
2023-05-07T13:43:19.938Z,101790.00
2023-05-07T13:45:49.990Z,101792.00
2023-05-07T13:48:22.562Z,101792.00
2023-05-07T13:50:52.500Z,101786.00
2023-05-07T13:53:22.480Z,101798.00
2023-05-07T13:55:52.531Z,101801.00
2023-05-07T13:58:22.487Z,101798.00
2023-05-07T14:00:52.754Z,101792.00
2023-05-07T14:03:25.667Z,101796.00
2023-05-07T14:05:55.759Z,101799.00
2023-05-07T14:08:26.776Z,101798.00
2023-05-07T14:10:56.970Z,101793.00
2023-05-07T14:13:28.050Z,101795.00
2023-05-07T14:15:58.099Z,101785.00
2023-05-07T14:18:30.748Z,101791.00
2023-05-07T14:21:01.018Z,101786.00
2023-05-07T14:23:31.267Z,101783.00
2023-05-07T14:26:01.245Z,101784.00
2023-05-07T14:28:31.229Z,101783.00
2023-05-07T14:31:01.326Z,101790.00
2023-05-07T14:33:33.920Z,101789.00
2023-05-07T14:36:04.703Z,101782.00
2023-05-07T14:38:35.417Z,101787.00
2023-05-07T14:41:05.547Z,101786.00
2023-05-07T14:43:35.532Z,101786.00
2023-05-07T14:46:05.552Z,101790.00
2023-05-07T14:48:38.094Z,101796.00
2023-05-07T14:51:08.137Z,101790.00
2023-05-07T14:53:38.123Z,101796.00
2023-05-07T14:56:09.328Z,101792.00
2023-05-07T14:58:39.781Z,101791.00
2023-05-07T15:01:09.835Z,101794.00
2023-05-07T15:03:43.271Z,101798.00
2023-05-07T15:06:13.338Z,101794.00
2023-05-07T15:08:43.379Z,101808.00
2023-05-07T15:11:13.340Z,101797.00
2023-05-07T15:13:43.350Z,101811.00
2023-05-07T15:16:13.467Z,101809.00
2023-05-07T15:18:46.861Z,101812.00
2023-05-07T15:21:16.948Z,101814.00
2023-05-07T15:23:47.582Z,101809.00
2023-05-07T15:26:17.578Z,101800.00
2023-05-07T15:28:47.555Z,101819.00
2023-05-07T15:31:17.587Z,101801.00
2023-05-07T15:33:50.226Z,101808.00
2023-05-07T15:36:20.195Z,101806.00
2023-05-07T15:38:50.216Z,101809.00
2023-05-07T15:41:20.196Z,101806.00
2023-05-07T15:43:53.935Z,101815.00
2023-05-07T15:46:26.508Z,101835.00
2023-05-07T15:49:00.025Z,101831.00
2023-05-07T15:51:30.876Z,101837.00
2023-05-07T15:54:01.208Z,101834.00
2023-05-07T15:56:33.908Z,101831.00
2023-05-07T15:59:04.221Z,101822.00
2023-05-07T16:01:34.301Z,101824.00
2023-05-07T16:04:07.390Z,101824.00
2023-05-07T16:06:37.444Z,101819.00
2023-05-07T16:09:09.443Z,101819.00
2023-05-07T16:11:39.433Z,101820.00
2023-05-07T16:14:09.902Z,101824.00
2023-05-07T16:16:41.113Z,101832.00
2023-05-07T16:19:13.830Z,101826.00
2023-05-07T16:21:43.875Z,101847.00
2023-05-07T16:24:13.989Z,101830.00
2023-05-07T16:26:43.964Z,101835.00
2023-05-07T16:29:13.981Z,101831.00
2023-05-07T16:31:44.717Z,101834.00
2023-05-07T16:34:17.259Z,101848.00
2023-05-07T16:36:47.332Z,101836.00
2023-05-07T16:39:17.551Z,101840.00
2023-05-07T16:41:48.953Z,101843.00
2023-05-07T16:44:19.107Z,101846.00
2023-05-07T16:46:49.131Z,101844.00
2023-05-07T16:49:21.755Z,101850.00
2023-05-07T16:51:51.770Z,101853.00
2023-05-07T16:54:21.754Z,101853.00
2023-05-07T16:56:51.695Z,101847.00
2023-05-07T16:59:23.260Z,101851.00
2023-05-07T17:01:53.731Z,101852.00
2023-05-07T17:04:26.507Z,101855.00
2023-05-07T17:06:57.110Z,101855.00
2023-05-07T17:09:27.186Z,101856.00
2023-05-07T17:11:57.393Z,101856.00
2023-05-07T17:14:27.468Z,101860.00
2023-05-07T17:16:57.474Z,101869.00
2023-05-07T17:19:30.275Z,101849.00
2023-05-07T17:22:00.282Z,101863.00
2023-05-07T17:24:30.234Z,101862.00
2023-05-07T17:27:00.273Z,101852.00
2023-05-07T17:29:30.447Z,101864.00
2023-05-07T17:32:00.857Z,101870.00
2023-05-07T17:34:33.708Z,101871.00
2023-05-07T17:37:03.839Z,101862.00
2023-05-07T17:39:33.827Z,101878.00
2023-05-07T17:42:03.861Z,101871.00
2023-05-07T17:44:34.074Z,101870.00
2023-05-07T17:47:04.312Z,101878.00
2023-05-07T17:49:37.472Z,101877.00
2023-05-07T17:52:08.906Z,101876.00
2023-05-07T17:54:38.879Z,101886.00
2023-05-07T17:57:08.861Z,101893.00
2023-05-07T17:59:39.381Z,101884.00
2023-05-07T18:02:09.547Z,101898.00
2023-05-07T18:04:42.108Z,101900.00
2023-05-07T18:07:12.139Z,101895.00
2023-05-07T18:09:42.092Z,101896.00
2023-05-07T18:12:12.145Z,101896.00
2023-05-07T18:14:42.127Z,101894.00
2023-05-07T18:17:12.283Z,101898.00
2023-05-07T18:19:45.958Z,101904.00
2023-05-07T18:22:16.326Z,101903.00
2023-05-07T18:24:46.505Z,101906.00
2023-05-07T18:27:16.638Z,101909.00
2023-05-07T18:29:46.820Z,101908.00
2023-05-07T18:32:16.951Z,101913.00
2023-05-07T18:34:49.663Z,101921.00
2023-05-07T18:37:19.675Z,101913.00
2023-05-07T18:39:49.718Z,101911.00
2023-05-07T18:42:20.350Z,101921.00
2023-05-07T18:44:50.395Z,101933.00
2023-05-07T18:47:20.601Z,101927.00
2023-05-07T18:49:53.335Z,101933.00
2023-05-07T18:52:26.244Z,101933.00
2023-05-07T18:54:56.418Z,101928.00
2023-05-07T18:57:29.612Z,101937.00
2023-05-07T18:59:59.741Z,101947.00
2023-05-07T19:02:29.827Z,101945.00
2023-05-07T19:05:02.624Z,101948.00
2023-05-07T19:07:32.694Z,101951.00
2023-05-07T19:10:18.904Z,101952.00
2023-05-07T19:12:50.047Z,101949.00
2023-05-07T19:15:20.066Z,101957.00
2023-05-07T19:17:52.129Z,101952.00
2023-05-07T19:20:25.101Z,101952.00
2023-05-07T19:22:55.105Z,101956.00
2023-05-07T19:25:25.209Z,101961.00
2023-05-07T19:27:56.762Z,101965.00
2023-05-07T19:30:27.318Z,101964.00
2023-05-07T19:32:57.546Z,101970.00
2023-05-07T19:35:31.518Z,101969.00
2023-05-07T19:38:01.547Z,101980.00
2023-05-07T19:40:31.661Z,101977.00
2023-05-07T19:43:02.150Z,101971.00
2023-05-07T19:45:32.719Z,101970.00
2023-05-07T19:48:02.782Z,101973.00
2023-05-07T19:50:37.380Z,101975.00
2023-05-07T19:53:08.100Z,101978.00
2023-05-07T19:55:38.370Z,101975.00
2023-05-07T19:58:08.599Z,101983.00
2023-05-07T20:00:39.590Z,101979.00
2023-05-07T20:03:14.825Z,101984.00
2023-05-07T20:05:50.844Z,101989.00
2023-05-07T20:08:21.115Z,101993.00
2023-05-07T20:10:51.383Z,101992.00
2023-05-07T20:13:21.658Z,101985.00
2023-05-07T20:15:51.754Z,102000.00
2023-05-07T20:18:23.380Z,101997.00
2023-05-07T20:20:56.338Z,102008.00
2023-05-07T20:23:27.001Z,102003.00
2023-05-07T20:25:57.553Z,102002.00
2023-05-07T20:28:30.840Z,102008.00
2023-05-07T20:31:00.917Z,102005.00
2023-05-07T20:33:30.942Z,102012.00
2023-05-07T20:36:03.699Z,102024.00
2023-05-07T20:38:34.032Z,102025.00
2023-05-07T20:41:09.905Z,102019.00
2023-05-07T20:43:40.319Z,102020.00
2023-05-07T20:46:10.367Z,102022.00
2023-05-07T20:48:40.433Z,102034.00
2023-05-07T20:51:13.845Z,102032.00
2023-05-07T20:53:48.174Z,102039.00
2023-05-07T20:56:18.756Z,102036.00
2023-05-07T20:58:48.939Z,102036.00
2023-05-07T21:01:19.016Z,102033.00
2023-05-07T21:03:50.329Z,102036.00
2023-05-07T21:06:23.275Z,102047.00
2023-05-07T21:08:53.340Z,102040.00
2023-05-07T21:11:23.612Z,102044.00
2023-05-07T21:13:53.650Z,102044.00
2023-05-07T21:16:24.291Z,102048.00
2023-05-07T21:18:54.349Z,102035.00
2023-05-07T21:21:28.148Z,102047.00
2023-05-07T21:23:58.266Z,102046.00
2023-05-07T21:26:28.244Z,102047.00
2023-05-07T21:28:58.251Z,102043.00
2023-05-07T21:31:28.458Z,102050.00
2023-05-07T21:33:59.286Z,102036.00
2023-05-07T21:36:31.825Z,102043.00
2023-05-07T21:39:01.822Z,102049.00
2023-05-07T21:41:31.864Z,102047.00
2023-05-07T21:44:01.807Z,102045.00
2023-05-07T21:46:31.940Z,102051.00
2023-05-07T21:49:02.001Z,102048.00
2023-05-07T21:51:37.294Z,102048.00
2023-05-07T21:54:07.891Z,102054.00
2023-05-07T21:56:37.850Z,102051.00
2023-05-07T21:59:07.825Z,102056.00
2023-05-07T22:01:37.912Z,102056.00
2023-05-07T22:04:08.224Z,102056.00
2023-05-07T22:06:41.238Z,102064.00
2023-05-07T22:09:11.324Z,102063.00
2023-05-07T22:11:41.358Z,102064.00
2023-05-07T22:14:11.415Z,102073.00
2023-05-07T22:16:41.800Z,102070.00
2023-05-07T22:19:11.861Z,102063.00
2023-05-07T22:21:44.433Z,102070.00
2023-05-07T22:24:14.446Z,102069.00
2023-05-07T22:26:45.242Z,102051.00
2023-05-07T22:29:15.228Z,102060.00
2023-05-07T22:31:45.310Z,102054.00
2023-05-07T22:34:15.312Z,102063.00
2023-05-07T22:36:47.917Z,102062.00
2023-05-07T22:39:17.878Z,102060.00
2023-05-07T22:41:47.897Z,102068.00
2023-05-07T22:44:18.017Z,102066.00
2023-05-07T22:46:49.870Z,102062.00
2023-05-07T22:49:19.845Z,102071.00
2023-05-07T22:51:52.374Z,102072.00
2023-05-07T22:54:24.191Z,102068.00
2023-05-07T22:56:55.507Z,102075.00
2023-05-07T22:59:25.462Z,102071.00
2023-05-07T23:01:55.975Z,102070.00
2023-05-07T23:04:26.154Z,102069.00
2023-05-07T23:06:58.761Z,102075.00
2023-05-07T23:09:28.788Z,102083.00
2023-05-07T23:11:58.811Z,102079.00
2023-05-07T23:14:28.834Z,102079.00
2023-05-07T23:16:58.918Z,102071.00
2023-05-07T23:19:28.926Z,102064.00
2023-05-07T23:22:01.556Z,102073.00
2023-05-07T23:24:31.523Z,102069.00
2023-05-07T23:27:01.538Z,102074.00
2023-05-07T23:29:31.581Z,102073.00
2023-05-07T23:32:01.545Z,102064.00
2023-05-07T23:34:31.517Z,102060.00
2023-05-07T23:37:04.093Z,102061.00
2023-05-07T23:39:34.079Z,102064.00
2023-05-07T23:42:04.070Z,102065.00
2023-05-07T23:44:34.050Z,102067.00
2023-05-07T23:47:04.017Z,102062.00
2023-05-07T23:49:34.031Z,102059.00
2023-05-07T23:52:06.659Z,102058.00
2023-05-07T23:54:36.661Z,102056.00
2023-05-07T23:57:06.896Z,102063.00
2023-05-07T23:59:36.890Z,102064.00
